Time;durP1;ratioP1;P1;durP2;ratioP2;P2;SDS_P1;SDS_P2;PMS_P1;PMS_P2;Temp;Humidity;BMP_temperature;BMP_pressure;BME280_temperature;BME280_humidity;BME280_pressure;Samples;Min_cycle;Max_cycle;Signal;HPM_P1;HPM_P2
2023/04/15 00:00:33;;;;;;;1.37;1.07;;;;;;;;;;5038451;28;20762;-94
2023/04/15 00:03:02;;;;;;;0.53;0.53;;;;;;;;;;5042676;28;20216;-93
2023/04/15 00:05:31;;;;;;;0.80;0.60;;;;;;;;;;5039432;28;20203;-94
2023/04/15 00:08:03;;;;;;;31.07;10.90;;;;;;;;;;5038993;28;20591;-93
2023/04/15 00:10:36;;;;;;;3.20;2.33;;;;;;;;;;5040128;28;20224;-94
2023/04/15 00:13:08;;;;;;;0.87;0.87;;;;;;;;;;5040543;28;20581;-95
2023/04/15 00:15:38;;;;;;;2.00;1.13;;;;;;;;;;5041421;28;20218;-95
2023/04/15 00:18:07;;;;;;;1.80;1.57;;;;;;;;;;5046169;28;20262;-93
2023/04/15 00:20:47;;;;;;;0.50;0.50;;;;;;;;;;5054004;28;20207;-93
2023/04/15 00:23:23;;;;;;;0.80;0.70;;;;;;;;;;5055188;28;20196;-93
2023/04/15 00:25:52;;;;;;;0.83;0.83;;;;;;;;;;5051969;28;20211;-92
2023/04/15 00:28:27;;;;;;;1.10;1.10;;;;;;;;;;5056018;28;20199;-93
2023/04/15 00:30:55;;;;;;;0.93;0.90;;;;;;;;;;5069262;28;20205;-94
2023/04/15 00:33:24;;;;;;;1.20;1.10;;;;;;;;;;5070900;28;20290;-92
2023/04/15 00:35:52;;;;;;;1.43;1.33;;;;;;;;;;5071458;28;20233;-93
2023/04/15 00:38:26;;;;;;;1.27;1.13;;;;;;;;;;5069830;28;20214;-93
2023/04/15 00:40:56;;;;;;;1.57;1.40;;;;;;;;;;5063310;28;20244;-93
2023/04/15 00:43:28;;;;;;;0.70;0.70;;;;;;;;;;5060298;28;20201;-93
2023/04/15 00:45:58;;;;;;;1.03;1.03;;;;;;;;;;5059981;28;20215;-93
2023/04/15 00:48:27;;;;;;;1.50;1.30;;;;;;;;;;5059378;28;20191;-94
2023/04/15 00:51:09;;;;;;;1.67;1.10;;;;;;;;;;5060951;28;20672;-92
2023/04/15 00:53:40;;;;;;;0.93;0.93;;;;;;;;;;5058233;28;20731;-93
2023/04/15 00:56:08;;;;;;;3.67;1.50;;;;;;;;;;5057627;28;20230;-93
2023/04/15 00:58:36;;;;;;;2.03;1.10;;;;;;;;;;5048165;28;20196;-94
2023/04/15 01:01:07;;;;;;;0.90;0.70;;;;;;;;;;5038843;28;20204;-93
2023/04/15 01:03:38;;;;;;;0.73;0.50;;;;;;;;;;5038510;28;20224;-95
2023/04/15 01:06:07;;;;;;;0.67;0.67;;;;;;;;;;5037974;28;20704;-93
2023/04/15 01:08:35;;;;;;;1.20;1.10;;;;;;;;;;5037922;28;20253;-94
2023/04/15 01:11:05;;;;;;;1.00;0.93;;;;;;;;;;5038066;28;20246;-92
2023/04/15 01:13:34;;;;;;;1.00;1.00;;;;;;;;;;5037801;28;20641;-93
2023/04/15 01:16:02;;;;;;;1.33;0.80;;;;;;;;;;5037987;28;20208;-94
2023/04/15 01:18:31;;;;;;;2.17;1.27;;;;;;;;;;5037504;28;20299;-93
2023/04/15 01:21:01;;;;;;;1.43;1.43;;;;;;;;;;5037298;28;20196;-94
2023/04/15 01:23:30;;;;;;;1.27;0.57;;;;;;;;;;5037542;28;20199;-94
2023/04/15 01:26:00;;;;;;;1.20;1.20;;;;;;;;;;5038965;28;20200;-93
2023/04/15 01:28:39;;;;;;;1.07;0.97;;;;;;;;;;5044936;28;21617;-94
2023/04/15 01:31:08;;;;;;;1.57;0.40;;;;;;;;;;5058371;28;20207;-95
2023/04/15 01:33:37;;;;;;;0.40;0.40;;;;;;;;;;5058299;28;20683;-93
2023/04/15 01:36:07;;;;;;;0.93;0.60;;;;;;;;;;5057949;28;20203;-93
2023/04/15 01:38:35;;;;;;;0.60;0.60;;;;;;;;;;5057044;28;20218;-93
2023/04/15 01:41:09;;;;;;;1.07;0.90;;;;;;;;;;5060216;28;20199;-93
2023/04/15 01:43:38;;;;;;;0.23;0.23;;;;;;;;;;5021393;28;20191;-94
2023/04/15 01:46:05;;;;;;;1.00;0.67;;;;;;;;;;5072316;28;20219;-92
2023/04/15 01:48:33;;;;;;;0.47;0.47;;;;;;;;;;5073100;28;20266;-92
2023/04/15 01:51:03;;;;;;;0.30;0.30;;;;;;;;;;5065434;28;20442;-94
2023/04/15 01:53:33;;;;;;;0.77;0.60;;;;;;;;;;5065789;28;20265;-93
2023/04/15 01:56:02;;;;;;;0.67;0.50;;;;;;;;;;5068374;28;20195;-92
2023/04/15 01:58:32;;;;;;;0.40;0.40;;;;;;;;;;5066482;28;20217;-93
2023/04/15 02:01:01;;;;;;;0.73;0.67;;;;;;;;;;5069403;28;20199;-93
2023/04/15 02:03:31;;;;;;;0.50;0.50;;;;;;;;;;5068500;28;20672;-94
2023/04/15 02:06:05;;;;;;;0.10;0.10;;;;;;;;;;5067114;28;20211;-93
2023/04/15 02:08:52;;;;;;;2.93;0.77;;;;;;;;;;5070953;28;20194;-93
2023/04/15 02:11:20;;;;;;;0.43;0.30;;;;;;;;;;5073785;28;20243;-94
2023/04/15 02:13:51;;;;;;;0.30;0.30;;;;;;;;;;5065800;28;20230;-92
2023/04/15 02:16:21;;;;;;;0.23;0.23;;;;;;;;;;5058521;28;20253;-93
2023/04/15 02:18:48;;;;;;;0.53;0.53;;;;;;;;;;5058256;28;20199;-95
2023/04/15 02:21:17;;;;;;;0.37;0.37;;;;;;;;;;5058120;28;20217;-92
2023/04/15 02:23:47;;;;;;;0.30;0.30;;;;;;;;;;5057694;28;20290;-94
2023/04/15 02:26:16;;;;;;;0.33;0.33;;;;;;;;;;5045501;28;20187;-92
2023/04/15 02:28:45;;;;;;;4.23;0.83;;;;;;;;;;5074644;28;20261;-93
2023/04/15 02:31:17;;;;;;;0.60;0.60;;;;;;;;;;5057675;28;20214;-95
2023/04/15 02:33:45;;;;;;;0.40;0.40;;;;;;;;;;5056419;28;20218;-93
2023/04/15 02:36:13;;;;;;;0.80;0.80;;;;;;;;;;5056673;28;20198;-92
2023/04/15 02:38:42;;;;;;;1.53;1.43;;;;;;;;;;5056107;28;20251;-94
2023/04/15 02:41:10;;;;;;;0.50;0.50;;;;;;;;;;5056036;28;20199;-93
2023/04/15 02:43:39;;;;;;;1.03;0.90;;;;;;;;;;5060519;28;20278;-93
2023/04/15 02:46:11;;;;;;;1.40;0.70;;;;;;;;;;5056379;28;20223;-92
2023/04/15 02:48:44;;;;;;;2.83;0.60;;;;;;;;;;5055356;28;20195;-93
2023/04/15 02:51:12;;;;;;;0.10;0.10;;;;;;;;;;5056561;28;20195;-93
2023/04/15 02:53:41;;;;;;;1.43;0.73;;;;;;;;;;5056597;28;20302;-94
2023/04/15 02:56:10;;;;;;;1.40;0.60;;;;;;;;;;5057789;28;20203;-94
2023/04/15 02:58:37;;;;;;;2.07;0.77;;;;;;;;;;5060275;28;20237;-94
2023/04/15 03:01:06;;;;;;;2.37;0.53;;;;;;;;;;5059402;28;20191;-92
2023/04/15 03:03:36;;;;;;;0.50;0.50;;;;;;;;;;5059546;28;20278;-94
2023/04/15 03:06:17;;;;;;;0.23;0.23;;;;;;;;;;5060081;28;20241;-93
2023/04/15 03:08:45;;;;;;;0.50;0.50;;;;;;;;;;5059639;28;20207;-94
2023/04/15 03:11:13;;;;;;;0.47;0.47;;;;;;;;;;5059295;28;20262;-92
2023/04/15 03:13:42;;;;;;;0.40;0.40;;;;;;;;;;5060532;28;20204;-95
2023/04/15 03:16:10;;;;;;;3.43;0.57;;;;;;;;;;5059618;28;20222;-93
2023/04/15 03:18:37;;;;;;;0.30;0.30;;;;;;;;;;5059489;28;20201;-93
2023/04/15 03:21:07;;;;;;;0.77;0.77;;;;;;;;;;5060364;28;20249;-93
2023/04/15 03:23:34;;;;;;;0.43;0.43;;;;;;;;;;5060410;28;20207;-93
2023/04/15 03:26:02;;;;;;;0.30;0.30;;;;;;;;;;5059805;28;20294;-92
2023/04/15 03:28:30;;;;;;;0.50;0.50;;;;;;;;;;5059707;28;20241;-93
2023/04/15 03:30:57;;;;;;;0.77;0.77;;;;;;;;;;5059327;28;20631;-93
2023/04/15 03:33:25;;;;;;;0.60;0.60;;;;;;;;;;5058705;28;20679;-91
2023/04/15 03:35:54;;;;;;;1.03;0.97;;;;;;;;;;5058454;28;20200;-93
2023/04/15 03:38:24;;;;;;;0.47;0.30;;;;;;;;;;5059120;28;20245;-93
2023/04/15 03:40:51;;;;;;;2.63;2.43;;;;;;;;;;5059552;28;20753;-94
2023/04/15 03:43:21;;;;;;;1.73;0.80;;;;;;;;;;5059882;28;20691;-93
2023/04/15 03:45:49;;;;;;;0.63;0.63;;;;;;;;;;5060095;28;20227;-93
2023/04/15 03:48:19;;;;;;;0.60;0.60;;;;;;;;;;5069529;28;20235;-92
2023/04/15 03:50:49;;;;;;;0.93;0.93;;;;;;;;;;5064107;28;20663;-93
2023/04/15 03:53:17;;;;;;;0.87;0.87;;;;;;;;;;5059473;28;20203;-93
2023/04/15 03:55:50;;;;;;;0.30;0.30;;;;;;;;;;5058646;28;20207;-92
2023/04/15 03:58:18;;;;;;;0.50;0.50;;;;;;;;;;5059800;28;20226;-93
2023/04/15 04:00:46;;;;;;;0.77;0.77;;;;;;;;;;5058992;28;20203;-92
2023/04/15 04:03:14;;;;;;;0.73;0.73;;;;;;;;;;5058564;28;20212;-93
2023/04/15 04:05:44;;;;;;;1.03;0.80;;;;;;;;;;5058198;28;20238;-94
2023/04/15 04:08:12;;;;;;;2.03;0.93;;;;;;;;;;5058076;28;20286;-93
2023/04/15 04:10:40;;;;;;;2.10;1.10;;;;;;;;;;5058123;28;20215;-94
2023/04/15 04:13:10;;;;;;;1.00;1.00;;;;;;;;;;5059200;28;20198;-93
2023/04/15 04:15:38;;;;;;;1.37;1.00;;;;;;;;;;5059402;28;20196;-94
2023/04/15 04:18:06;;;;;;;1.20;1.10;;;;;;;;;;5059397;28;20196;-93
2023/04/15 04:20:34;;;;;;;3.00;1.67;;;;;;;;;;5061310;28;20202;-94
2023/04/15 04:23:02;;;;;;;1.27;1.27;;;;;;;;;;5017695;28;20235;-92
2023/04/15 04:25:31;;;;;;;0.93;0.93;;;;;;;;;;4957445;28;20308;-93
2023/04/15 04:28:00;;;;;;;1.23;1.10;;;;;;;;;;4984184;28;20270;-92
2023/04/15 04:30:30;;;;;;;2.03;1.63;;;;;;;;;;5057175;28;20232;-93
2023/04/15 04:33:00;;;;;;;1.98;1.40;;;;;;;;;;5041794;28;20563;-93
2023/04/15 04:35:36;;;;;;;1.95;1.60;;;;;;;;;;5037456;28;20652;-94
2023/04/15 04:38:03;;;;;;;1.80;1.70;;;;;;;;;;5011971;28;20205;-93
2023/04/15 04:40:36;;;;;;;1.30;1.30;;;;;;;;;;5040439;28;20208;-92
2023/04/15 04:45:50;;;;;;;1.73;1.73;;;;;;;;;;5039825;28;20666;-93
2023/04/15 04:48:19;;;;;;;1.60;1.50;;;;;;;;;;5045445;28;20294;-93
2023/04/15 04:51:01;;;;;;;1.77;1.63;;;;;;;;;;5046502;28;20200;-91
2023/04/15 04:53:30;;;;;;;2.65;2.45;;;;;;;;;;5038990;28;20199;-93
2023/04/15 04:55:59;;;;;;;4.68;2.50;;;;;;;;;;5061352;28;20226;-93
2023/04/15 04:58:35;;;;;;;2.40;2.20;;;;;;;;;;5044233;28;20296;-93
2023/04/15 05:01:16;;;;;;;1.98;1.88;;;;;;;;;;5048348;28;20660;-91
2023/04/15 05:03:46;;;;;;;2.45;2.35;;;;;;;;;;5060279;28;20752;-92
2023/04/15 05:06:36;;;;;;;2.20;2.00;;;;;;;;;;5055649;28;20227;-92
2023/04/15 05:09:03;;;;;;;3.25;1.83;;;;;;;;;;5053962;28;20489;-93
2023/04/15 05:11:30;;;;;;;2.80;1.80;;;;;;;;;;5041660;28;20306;-92
2023/04/15 05:13:58;;;;;;;2.72;2.08;;;;;;;;;;5043152;28;20279;-92
2023/04/15 05:16:26;;;;;;;3.78;2.72;;;;;;;;;;5036034;28;20256;-94
2023/04/15 05:18:58;;;;;;;4.03;3.70;;;;;;;;;;5031422;28;20200;-92
2023/04/15 05:21:26;;;;;;;3.08;2.85;;;;;;;;;;5034480;28;20224;-93
2023/04/15 05:23:53;;;;;;;4.15;3.38;;;;;;;;;;5034826;28;20203;-93
2023/04/15 05:26:23;;;;;;;3.40;3.20;;;;;;;;;;5036140;28;20224;-91
2023/04/15 05:28:56;;;;;;;3.10;2.83;;;;;;;;;;5035895;28;20228;-93
2023/04/15 05:31:34;;;;;;;2.45;2.25;;;;;;;;;;5020451;28;20196;-93
2023/04/15 05:34:05;;;;;;;2.53;2.33;;;;;;;;;;5041197;28;20199;-93
2023/04/15 05:36:36;;;;;;;4.18;2.47;;;;;;;;;;5040207;28;20235;-94
2023/04/15 05:39:03;;;;;;;2.40;2.22;;;;;;;;;;5037158;28;20283;-94
2023/04/15 05:41:31;;;;;;;2.45;2.10;;;;;;;;;;5042445;28;20195;-93
2023/04/15 05:43:59;;;;;;;3.67;2.47;;;;;;;;;;5055770;28;20202;-92
2023/04/15 05:46:27;;;;;;;3.03;2.78;;;;;;;;;;5055759;28;20246;-93
2023/04/15 05:49:01;;;;;;;2.28;2.08;;;;;;;;;;5056030;28;20282;-94
2023/04/15 05:51:37;;;;;;;2.80;2.38;;;;;;;;;;5054977;28;20638;-94
2023/04/15 05:54:04;;;;;;;2.10;2.00;;;;;;;;;;5054717;28;20261;-93
2023/04/15 05:56:31;;;;;;;2.03;1.90;;;;;;;;;;5050938;28;20314;-94
2023/04/15 05:59:00;;;;;;;1.80;1.70;;;;;;;;;;5035858;28;20230;-94
2023/04/15 06:01:29;;;;;;;6.07;1.95;;;;;;;;;;5034608;28;20751;-93
2023/04/15 06:03:59;;;;;;;1.65;1.55;;;;;;;;;;5050587;28;20663;-93
2023/04/15 06:06:29;;;;;;;2.38;2.17;;;;;;;;;;5053770;28;20322;-94
2023/04/15 06:08:59;;;;;;;3.90;2.30;;;;;;;;;;5030908;28;20214;-92
2023/04/15 06:17:17;;;;;;;2.30;2.10;;;;;;;;;;5026080;28;20290;-94
2023/04/15 06:19:44;;;;;;;2.15;1.95;;;;;;;;;;5055304;28;20199;-93
2023/04/15 06:22:13;;;;;;;2.28;1.88;;;;;;;;;;5057520;28;20282;-93
2023/04/15 06:25:06;;;;;;;2.25;1.90;;;;;;;;;;5055888;28;20222;-93
2023/04/15 06:27:38;;;;;;;2.20;2.10;;;;;;;;;;5050719;28;20203;-93
2023/04/15 06:30:11;;;;;;;2.60;2.35;;;;;;;;;;5055509;28;20242;-93
2023/04/15 06:32:38;;;;;;;2.13;2.00;;;;;;;;;;5060633;28;20207;-94
2023/04/15 06:35:09;;;;;;;2.13;2.03;;;;;;;;;;5059161;28;20199;-94
2023/04/15 06:37:36;;;;;;;1.85;1.75;;;;;;;;;;5057399;28;20230;-92
2023/04/15 06:40:07;;;;;;;1.95;1.85;;;;;;;;;;5064283;28;20210;-92
2023/04/15 06:42:39;;;;;;;1.90;1.80;;;;;;;;;;5073838;28;20203;-92
2023/04/15 06:45:11;;;;;;;1.70;1.60;;;;;;;;;;5074950;28;20260;-92
2023/04/15 06:47:40;;;;;;;1.80;1.70;;;;;;;;;;5074856;28;20251;-93
2023/04/15 06:50:12;;;;;;;2.47;2.08;;;;;;;;;;5056579;28;20199;-92
2023/04/15 06:52:39;;;;;;;2.47;1.83;;;;;;;;;;5019243;28;20203;-93
2023/04/15 06:55:08;;;;;;;2.15;2.03;;;;;;;;;;5058631;28;20286;-93
2023/04/15 06:57:39;;;;;;;3.33;2.22;;;;;;;;;;5062651;28;20206;-92
2023/04/15 07:00:41;;;;;;;5.40;2.08;;;;;;;;;;5070695;28;20212;-92
2023/04/15 07:03:34;;;;;;;2.35;1.90;;;;;;;;;;5064075;28;20199;-93
2023/04/15 07:06:05;;;;;;;3.35;3.05;;;;;;;;;;5074722;28;20284;-92
2023/04/15 07:08:36;;;;;;;2.28;2.10;;;;;;;;;;5075990;28;20187;-92
2023/04/15 07:11:04;;;;;;;1.95;1.85;;;;;;;;;;5060924;28;20268;-93
2023/04/15 07:13:35;;;;;;;3.05;1.60;;;;;;;;;;5056066;28;20204;-92
2023/04/15 07:16:07;;;;;;;1.88;1.77;;;;;;;;;;5056104;28;20274;-92
2023/04/15 07:18:34;;;;;;;2.25;1.80;;;;;;;;;;5058337;28;20231;-94
2023/04/15 07:21:07;;;;;;;4.30;1.60;;;;;;;;;;5057714;28;20207;-92
2023/04/15 07:23:35;;;;;;;2.90;1.80;;;;;;;;;;5058898;28;20210;-95
2023/04/15 07:26:02;;;;;;;2.25;1.98;;;;;;;;;;5060129;28;20234;-92
2023/04/15 07:28:31;;;;;;;1.65;1.40;;;;;;;;;;5053969;28;20260;-94
2023/04/15 07:31:01;;;;;;;2.25;1.27;;;;;;;;;;5046173;28;20227;-93
2023/04/15 07:33:28;;;;;;;1.40;1.38;;;;;;;;;;5040571;28;20203;-92
2023/04/15 07:36:04;;;;;;;1.30;1.30;;;;;;;;;;5038696;28;20200;-92
2023/04/15 07:38:34;;;;;;;2.05;1.60;;;;;;;;;;5040223;28;20755;-92
2023/04/15 07:41:09;;;;;;;1.60;1.50;;;;;;;;;;5031571;28;20217;-94
2023/04/15 07:43:40;;;;;;;2.15;1.95;;;;;;;;;;5017363;28;20259;-92
2023/04/15 07:46:10;;;;;;;1.15;1.10;;;;;;;;;;5022539;28;20240;-92
2023/04/15 07:48:42;;;;;;;2.85;1.30;;;;;;;;;;5025507;28;20225;-92
2023/04/15 07:51:20;;;;;;;2.05;1.30;;;;;;;;;;5040567;28;20845;-91
2023/04/15 07:53:50;;;;;;;1.17;1.17;;;;;;;;;;5051470;28;20239;-91
2023/04/15 07:56:18;;;;;;;2.05;1.20;;;;;;;;;;5052540;28;20223;-92
2023/04/15 07:58:51;;;;;;;1.20;1.20;;;;;;;;;;5052556;28;20256;-91
2023/04/15 08:01:22;;;;;;;0.82;0.82;;;;;;;;;;5041175;28;20216;-91
2023/04/15 08:04:00;;;;;;;;;;;;;;;;;;;;;
2023/04/15 08:06:31;;;;;;;1.40;1.30;;;;;;;;;;5035922;28;20244;-92
2023/04/15 08:09:02;;;;;;;1.00;1.00;;;;;;;;;;5050440;28;20223;-93
2023/04/15 08:11:32;;;;;;;1.85;0.75;;;;;;;;;;5041057;28;20311;-92
2023/04/15 08:14:02;;;;;;;1.98;0.95;;;;;;;;;;5035310;28;20310;-92
2023/04/15 08:16:38;;;;;;;0.70;0.70;;;;;;;;;;5035211;28;20227;-93
2023/04/15 08:19:08;;;;;;;1.63;1.10;;;;;;;;;;5046295;28;20233;-92
2023/04/15 08:21:38;;;;;;;1.08;1.08;;;;;;;;;;5054722;28;20218;-92
2023/04/15 08:24:07;;;;;;;1.25;0.77;;;;;;;;;;5054737;28;20227;-91
2023/04/15 08:26:34;;;;;;;3.75;1.00;;;;;;;;;;5055376;28;20262;-93
2023/04/15 08:29:05;;;;;;;0.95;0.90;;;;;;;;;;5053741;28;20268;-92
2023/04/15 08:31:32;;;;;;;0.32;0.32;;;;;;;;;;5055209;28;20247;-93
2023/04/15 08:33:59;;;;;;;1.00;1.00;;;;;;;;;;5056110;28;20302;-92
2023/04/15 08:36:27;;;;;;;1.02;1.02;;;;;;;;;;5059630;28;20236;-92
2023/04/15 08:38:56;;;;;;;0.60;0.60;;;;;;;;;;5055026;28;20242;-94
2023/04/15 08:41:42;;;;;;;1.42;0.52;;;;;;;;;;5057354;28;20228;-91
2023/04/15 08:44:24;;;;;;;;;;;;;;;;;;;;;
2023/04/15 08:46:59;;;;;;;0.30;0.30;;;;;;;;;;5045400;28;20239;-92
2023/04/15 08:49:31;;;;;;;0.10;0.10;;;;;;;;;;5067467;28;20219;-92
2023/04/15 08:51:59;;;;;;;0.30;0.30;;;;;;;;;;5073476;28;20215;-91
2023/04/15 08:54:27;;;;;;;0.28;0.28;;;;;;;;;;5071382;28;20235;-93
2023/04/15 08:56:58;;;;;;;0.20;0.20;;;;;;;;;;5060638;28;20275;-92
2023/04/15 08:59:28;;;;;;;0.10;0.10;;;;;;;;;;5055146;28;20273;-93
2023/04/15 09:01:56;;;;;;;0.30;0.30;;;;;;;;;;5054744;28;20228;-93
2023/04/15 09:04:25;;;;;;;0.32;0.32;;;;;;;;;;5054658;28;20219;-93
2023/04/15 09:06:53;;;;;;;1.25;0.35;;;;;;;;;;5055537;28;20288;-94
2023/04/15 09:09:26;;;;;;;0.40;0.40;;;;;;;;;;5054520;28;20227;-92
2023/04/15 09:11:53;;;;;;;0.85;0.43;;;;;;;;;;5053690;28;20550;-93
2023/04/15 09:14:23;;;;;;;0.10;0.10;;;;;;;;;;5053978;28;20227;-93
2023/04/15 09:16:57;;;;;;;0.25;0.25;;;;;;;;;;5055616;28;20223;-93
2023/04/15 09:19:28;;;;;;;0.20;0.20;;;;;;;;;;5041657;28;20232;-92
2023/04/15 09:21:59;;;;;;;0.10;0.10;;;;;;;;;;5033532;28;20236;-94
2023/04/15 09:24:30;;;;;;;0.10;0.10;;;;;;;;;;5033341;28;20220;-94
2023/04/15 09:27:02;;;;;;;0.45;0.45;;;;;;;;;;5033202;28;20699;-95
2023/04/15 09:29:31;;;;;;;0.28;0.28;;;;;;;;;;5033177;28;20235;-93
2023/04/15 09:32:00;;;;;;;0.32;0.32;;;;;;;;;;5032991;28;20245;-93
2023/04/15 09:34:38;;;;;;;0.20;0.20;;;;;;;;;;5033958;28;20227;-93
2023/04/15 09:37:05;;;;;;;0.40;0.30;;;;;;;;;;5033409;28;20313;-93
2023/04/15 09:39:49;;;;;;;0.30;0.30;;;;;;;;;;5034907;28;20228;-95
2023/04/15 09:42:23;;;;;;;0.10;0.10;;;;;;;;;;5035294;28;20231;-93
2023/04/15 09:44:52;;;;;;;0.20;0.20;;;;;;;;;;5035285;28;20220;-92
2023/04/15 09:47:27;;;;;;;0.38;0.20;;;;;;;;;;5034094;28;20245;-92
2023/04/15 09:49:58;;;;;;;0.28;0.28;;;;;;;;;;5033514;28;20729;-93
2023/04/15 09:52:26;;;;;;;0.20;0.20;;;;;;;;;;5047337;28;20257;-89
2023/04/15 09:54:55;;;;;;;0.10;0.10;;;;;;;;;;5050948;28;20227;-91
2023/04/15 09:57:22;;;;;;;0.28;0.28;;;;;;;;;;5051567;28;20239;-91
2023/04/15 09:59:59;;;;;;;0.10;0.10;;;;;;;;;;5050328;28;20224;-93
2023/04/15 10:02:34;;;;;;;0.10;0.10;;;;;;;;;;5048267;28;20220;-92
2023/04/15 10:05:02;;;;;;;0.00;0.00;;;;;;;;;;5038734;28;20231;-90
2023/04/15 10:07:31;;;;;;;0.35;0.35;;;;;;;;;;5040749;28;20250;-94
2023/04/15 10:10:00;;;;;;;0.17;0.17;;;;;;;;;;5036217;28;20228;-94
2023/04/15 10:12:29;;;;;;;0.10;0.10;;;;;;;;;;5042382;28;20287;-93
2023/04/15 10:14:58;;;;;;;0.30;0.30;;;;;;;;;;5053550;28;20216;-93
2023/04/15 10:17:39;;;;;;;;;;;;;;;;;;;;;
2023/04/15 10:20:11;;;;;;;0.15;0.15;;;;;;;;;;5048398;28;20238;-94
2023/04/15 10:22:40;;;;;;;1.55;0.30;;;;;;;;;;5055194;28;20231;-93
2023/04/15 10:25:08;;;;;;;0.30;0.20;;;;;;;;;;5048638;28;20223;-92
2023/04/15 10:27:37;;;;;;;0.10;0.10;;;;;;;;;;5049078;28;20240;-94
2023/04/15 10:30:05;;;;;;;0.20;0.20;;;;;;;;;;5048395;28;20292;-93
2023/04/15 10:32:37;;;;;;;0.13;0.05;;;;;;;;;;5046904;28;20224;-93
2023/04/15 10:35:11;;;;;;;0.20;0.20;;;;;;;;;;5036483;28;20740;-93
2023/04/15 10:37:48;;;;;;;0.50;0.50;;;;;;;;;;5036292;28;20219;-94
2023/04/15 10:40:30;;;;;;;0.15;0.15;;;;;;;;;;5039403;28;20270;-92
2023/04/15 10:43:01;;;;;;;2.08;0.25;;;;;;;;;;5048542;28;20220;-93
2023/04/15 10:45:33;;;;;;;0.13;0.13;;;;;;;;;;5033421;28;20232;-93
2023/04/15 10:48:02;;;;;;;0.70;0.08;;;;;;;;;;5036997;28;20726;-94
2023/04/15 10:50:38;;;;;;;3.10;0.30;;;;;;;;;;5039624;28;20224;-94
2023/04/15 10:53:13;;;;;;;1.27;0.40;;;;;;;;;;5034043;28;20263;-93
2023/04/15 10:55:40;;;;;;;0.10;0.10;;;;;;;;;;5033669;28;20217;-93
2023/04/15 10:58:07;;;;;;;0.47;0.47;;;;;;;;;;5033526;28;20346;-92
2023/04/15 11:00:38;;;;;;;0.43;0.15;;;;;;;;;;5033175;28;20236;-95
2023/04/15 11:03:07;;;;;;;0.30;0.30;;;;;;;;;;5034224;28;20274;-93
2023/04/15 11:05:53;;;;;;;0.40;0.35;;;;;;;;;;5033433;28;20232;-94
2023/04/15 11:08:42;;;;;;;0.25;0.25;;;;;;;;;;5033570;28;20274;-93
2023/04/15 11:11:09;;;;;;;0.20;0.20;;;;;;;;;;5032838;28;20219;-94
2023/04/15 11:13:54;;;;;;;4.03;0.30;;;;;;;;;;5036053;28;20220;-94
2023/04/15 11:16:21;;;;;;;0.20;0.20;;;;;;;;;;5040776;28;20239;-94
2023/04/15 11:18:57;;;;;;;3.03;0.30;;;;;;;;;;5043959;28;20242;-93
2023/04/15 11:21:34;;;;;;;0.30;0.30;;;;;;;;;;5036802;28;20220;-93
2023/04/15 11:24:07;;;;;;;2.78;0.60;;;;;;;;;;5036171;28;20242;-93
2023/04/15 11:26:35;;;;;;;0.40;0.40;;;;;;;;;;5036442;28;20319;-94
2023/04/15 11:29:06;;;;;;;0.43;0.20;;;;;;;;;;5036374;28;20248;-93
2023/04/15 11:31:36;;;;;;;0.40;0.40;;;;;;;;;;5036935;28;20290;-94
2023/04/15 11:34:12;;;;;;;0.20;0.20;;;;;;;;;;5038890;28;20231;-93
2023/04/15 11:36:47;;;;;;;0.20;0.20;;;;;;;;;;5038566;28;20228;-93
2023/04/15 11:39:26;;;;;;;0.40;0.40;;;;;;;;;;5039265;28;20224;-94
2023/04/15 11:41:54;;;;;;;2.20;0.47;;;;;;;;;;5039965;28;20250;-94
2023/04/15 11:44:23;;;;;;;0.22;0.22;;;;;;;;;;5039355;28;20323;-93
2023/04/15 11:46:50;;;;;;;0.30;0.30;;;;;;;;;;5037140;28;20234;-91
2023/04/15 11:49:30;;;;;;;0.70;0.70;;;;;;;;;;5035959;28;20231;-91
2023/04/15 11:51:59;;;;;;;0.32;0.32;;;;;;;;;;5036274;28;20230;-94
2023/04/15 11:54:31;;;;;;;0.55;0.30;;;;;;;;;;5037080;28;20227;-91
2023/04/15 11:57:00;;;;;;;0.30;0.30;;;;;;;;;;5036453;28;20315;-90
2023/04/15 11:59:31;;;;;;;0.30;0.30;;;;;;;;;;5035116;28;20230;-90
2023/04/15 12:02:03;;;;;;;0.40;0.40;;;;;;;;;;5017709;28;20228;-91
2023/04/15 12:04:31;;;;;;;0.90;0.90;;;;;;;;;;5020876;28;20237;-93
2023/04/15 12:07:05;;;;;;;0.30;0.30;;;;;;;;;;5015046;28;20240;-93
2023/04/15 12:09:41;;;;;;;0.30;0.30;;;;;;;;;;5020305;28;20227;-94
2023/04/15 12:12:13;;;;;;;0.30;0.30;;;;;;;;;;5019074;28;20225;-95
2023/04/15 12:15:20;;;;;;;;;;;;;;;;;;;;;
2023/04/15 12:20:53;;;;;;;0.52;0.40;;;;;;;;;;5038547;28;20267;-92
2023/04/15 12:23:23;;;;;;;0.10;0.10;;;;;;;;;;5039350;28;20233;-93
2023/04/15 12:25:58;;;;;;;0.28;0.28;;;;;;;;;;5038727;28;20790;-92
2023/04/15 12:31:10;;;;;;;0.20;0.20;;;;;;;;;;5031192;28;20230;-87
2023/04/15 12:34:00;;;;;;;0.20;0.20;;;;;;;;;;5032027;28;20226;-86
2023/04/15 12:36:40;;;;;;;;;;;;;;;;;;;;;
2023/04/15 12:39:08;;;;;;;5.78;3.22;;;;;;;;;;5032296;28;20219;-88
2023/04/15 12:41:43;;;;;;;0.30;0.20;;;;;;;;;;4933298;28;20239;-87
2023/04/15 12:44:11;;;;;;;0.20;0.20;;;;;;;;;;4932638;28;20368;-88
2023/04/15 12:46:40;;;;;;;0.90;0.30;;;;;;;;;;4932170;28;20738;-89
2023/04/15 12:49:10;;;;;;;0.50;0.30;;;;;;;;;;4931992;28;20732;-88
2023/04/15 12:51:39;;;;;;;0.20;0.20;;;;;;;;;;4932816;28;20231;-89
2023/04/15 12:54:08;;;;;;;0.10;0.10;;;;;;;;;;4931424;28;20373;-89
2023/04/15 12:56:39;;;;;;;0.25;0.25;;;;;;;;;;5033239;28;20237;-87
2023/04/15 12:59:32;;;;;;;1.08;0.30;;;;;;;;;;5030380;28;20228;-86
2023/04/15 13:02:02;;;;;;;0.80;0.30;;;;;;;;;;5031265;28;20239;-87
2023/04/15 13:04:41;;;;;;;0.05;0.05;;;;;;;;;;5032679;28;20220;-88
2023/04/15 13:07:08;;;;;;;2.25;0.40;;;;;;;;;;5031226;28;20625;-87
2023/04/15 13:09:36;;;;;;;0.90;0.28;;;;;;;;;;5031379;28;20666;-85
2023/04/15 13:12:04;;;;;;;0.17;0.17;;;;;;;;;;5031007;28;20219;-86
2023/04/15 13:14:34;;;;;;;0.20;0.20;;;;;;;;;;5031910;28;20231;-85
2023/04/15 13:17:03;;;;;;;1.08;0.52;;;;;;;;;;5029887;28;20235;-87
2023/04/15 13:19:32;;;;;;;0.15;0.15;;;;;;;;;;5046673;28;20317;-87
2023/04/15 13:21:59;;;;;;;0.15;0.15;;;;;;;;;;5050754;28;20589;-86
2023/04/15 13:24:33;;;;;;;0.10;0.10;;;;;;;;;;5051102;28;20293;-88
2023/04/15 13:27:04;;;;;;;1.20;0.20;;;;;;;;;;5052046;28;20222;-87
2023/04/15 13:29:34;;;;;;;0.10;0.10;;;;;;;;;;5058935;28;20643;-87
2023/04/15 13:32:01;;;;;;;0.82;0.20;;;;;;;;;;5052901;28;20232;-86
2023/04/15 13:34:32;;;;;;;0.63;0.63;;;;;;;;;;5050711;28;20227;-87
2023/04/15 13:37:00;;;;;;;0.20;0.20;;;;;;;;;;5050894;28;20280;-87
2023/04/15 13:39:27;;;;;;;0.25;0.10;;;;;;;;;;5048864;28;20226;-88
2023/04/15 13:41:54;;;;;;;0.63;0.10;;;;;;;;;;5050341;28;20285;-86
2023/04/15 13:44:31;;;;;;;0.20;0.20;;;;;;;;;;5050122;28;20322;-86
2023/04/15 13:47:02;;;;;;;0.00;0.00;;;;;;;;;;5050353;28;20252;-86
2023/04/15 13:49:34;;;;;;;0.47;0.15;;;;;;;;;;5034563;28;20637;-89
2023/04/15 13:52:02;;;;;;;0.10;0.10;;;;;;;;;;5029398;28;20216;-87
2023/04/15 13:54:30;;;;;;;0.08;0.08;;;;;;;;;;5029190;28;20278;-88
2023/04/15 13:56:57;;;;;;;0.20;0.20;;;;;;;;;;5030990;28;20247;-90
2023/04/15 13:59:26;;;;;;;0.20;0.20;;;;;;;;;;5032269;28;20234;-89
2023/04/15 14:01:54;;;;;;;0.20;0.20;;;;;;;;;;5034126;28;20297;-88
2023/04/15 14:04:24;;;;;;;1.17;0.40;;;;;;;;;;5032672;28;20304;-87
2023/04/15 14:06:53;;;;;;;0.20;0.20;;;;;;;;;;5034863;28;20256;-87
2023/04/15 14:09:22;;;;;;;9.05;0.35;;;;;;;;;;5030787;28;20695;-86
2023/04/15 14:11:50;;;;;;;0.13;0.13;;;;;;;;;;5034770;28;20227;-87
2023/04/15 14:14:17;;;;;;;0.10;0.10;;;;;;;;;;5035946;28;20239;-86
2023/04/15 14:16:46;;;;;;;0.40;0.40;;;;;;;;;;5037968;28;20273;-85
2023/04/15 14:19:13;;;;;;;0.17;0.17;;;;;;;;;;5039470;28;20236;-88
2023/04/15 14:21:43;;;;;;;0.20;0.20;;;;;;;;;;5036717;28;20302;-85
2023/04/15 14:24:11;;;;;;;0.75;0.50;;;;;;;;;;5034664;28;20226;-86
2023/04/15 14:26:39;;;;;;;0.28;0.28;;;;;;;;;;5035811;28;20227;-85
2023/04/15 14:29:07;;;;;;;0.52;0.22;;;;;;;;;;5031312;28;20235;-84
2023/04/15 14:31:35;;;;;;;0.17;0.17;;;;;;;;;;5030838;28;20274;-85
2023/04/15 14:34:02;;;;;;;0.25;0.25;;;;;;;;;;5031082;28;20238;-87
2023/04/15 14:36:32;;;;;;;0.30;0.30;;;;;;;;;;5036284;28;20743;-86
2023/04/15 14:39:01;;;;;;;0.10;0.10;;;;;;;;;;5037383;28;20230;-85
2023/04/15 14:41:29;;;;;;;0.20;0.20;;;;;;;;;;5039879;28;20226;-88
2023/04/15 14:43:56;;;;;;;0.22;0.20;;;;;;;;;;5033112;28;20228;-88
2023/04/15 14:46:25;;;;;;;0.03;0.03;;;;;;;;;;5032263;28;20230;-87
2023/04/15 14:48:53;;;;;;;0.10;0.10;;;;;;;;;;5032245;28;20226;-86
2023/04/15 14:51:21;;;;;;;0.20;0.20;;;;;;;;;;5032579;28;20318;-87
2023/04/15 14:53:51;;;;;;;0.55;0.55;;;;;;;;;;5034866;28;20235;-86
2023/04/15 14:56:22;;;;;;;0.50;0.50;;;;;;;;;;5035118;28;20239;-86
2023/04/15 14:58:52;;;;;;;0.15;0.15;;;;;;;;;;5034813;28;20295;-86
2023/04/15 15:01:21;;;;;;;0.20;0.20;;;;;;;;;;5033723;28;20232;-88
2023/04/15 15:03:49;;;;;;;1.38;0.40;;;;;;;;;;5034788;28;20219;-87
2023/04/15 15:06:16;;;;;;;0.88;0.50;;;;;;;;;;5034763;28;20261;-88
2023/04/15 15:08:46;;;;;;;0.63;0.40;;;;;;;;;;5036709;28;20709;-87
2023/04/15 15:11:14;;;;;;;1.60;0.77;;;;;;;;;;5042516;28;20224;-87
2023/04/15 15:13:43;;;;;;;0.30;0.30;;;;;;;;;;5045369;28;20226;-87
2023/04/15 15:16:10;;;;;;;0.25;0.25;;;;;;;;;;5040319;28;20224;-88
2023/04/15 15:18:37;;;;;;;0.38;0.38;;;;;;;;;;5040893;28;20242;-87
2023/04/15 15:21:05;;;;;;;0.10;0.10;;;;;;;;;;5038508;28;20227;-88
2023/04/15 15:23:32;;;;;;;0.40;0.40;;;;;;;;;;5038397;28;20239;-86